• Join FlightAware (Why Join?)
  • Login
  • US Flag 
01:58AM EDT


 

Airport Tracker/Info


-or-


 

Live Flight TrackerFlight Track Log ✈ DAL6221 ✈ 01-May-2013 ✈ KBTV - KLGA

Flight Track Log - Related Links

Times and Time Zones

All times are in EDT time to prevent confusion due to time zone crossing. See the DAL6221 flight status page for this flight to view local times or setup timezone preferences in your user account.

Time Position Orientation Groundspeed Altitude Reporting Facility
EDT Latitude Longitude Course Direction KTS MPH feet Rate Location/Type
02:39PM 44.3625 -73.2822 195° South 276 318 8,800  Level Boston Center
02:40PM 44.2831 -73.3100 194° South 288 331 11,000 2,100 Climbing Boston Center
02:41PM 44.1911 -73.3406 193° South 323 372 13,000 2,280 Climbing Boston Center
02:42PM 44.0931 -73.3736 194° South 353 406 15,600 2,280 Climbing Boston Center
02:43PM 43.8884 -73.3710 195° South  Level FlightAware Approximate
02:43PM 43.9886 -73.4067 193° South 372 428 17,600  Level Boston Center
02:44PM 43.7918 -73.4075 195° South  Level FlightAware Approximate
02:44PM 43.8797 -73.4425 193° South 391 450 19,000  Level Boston Center
02:45PM 43.7314 -73.4917 193° South 419 482 21,400 1,500 Climbing Boston Center
02:46PM 43.6247 -73.5242 192° South 424 488 22,000 300 Climbing Boston Center
02:47PM 43.4994 -73.5619 192° South 446 513 22,000  Level Boston Center
02:48PM 43.3739 -73.6025 193° South 459 528 22,000  Level Boston Center
02:49PM 43.2486 -73.6431 193° South 465 535 22,000  Level Boston Center
02:50PM 43.1481 -73.6781 194° South 465 535 22,000  Level Boston Center
02:51PM 42.9828 -73.7314 193° South 472 543 22,000  Level Boston Center
02:52PM 42.8575 -73.7683 192° South 472 543 22,000  Level Boston Center
02:53PM 42.7278 -73.7967 189° South 472 543 22,000  Level Boston Center
02:54PM 42.6239 -73.7833 175° South 466 536 22,000 -360 Level Boston Center
02:55PM 42.4867 -73.7550 171° South 461 531 21,300 -1,020 Descending Boston Center
02:56PM 42.3639 -73.7297 171° South 461 531 20,000 -1,320 Descending Boston Center
02:57PM 42.2411 -73.7047 171° South 461 531 18,700 -1,020 Descending Boston Center
02:58PM 42.1228 -73.6772 170° South 451 519 18,000 -360 Descending Boston Center
02:59PM 42.0022 -73.6497 170° South 423 487 18,000  Level Boston Center
03:00PM 41.8939 -73.6308 173° South 398 458 18,100 -720 Climbing Boston Center
03:01PM 41.7878 -73.6206 176° South 393 452 16,600 -1,140 Descending Boston Center
03:02PM 41.7200 -73.7167 227° Southwest 328 377 15,900 -1,080 Descending Boston Center
03:03PM 41.6583 -73.8211 232° Southwest 355 409 14,500 -1,620 Descending Boston Center
03:05PM 41.4833 -73.8667 191° South 344 396 11,400 -1,560 Descending New York TRACON
03:06PM 41.4000 -73.8500 171° South 319 367 10,200 -1,380 Descending New York TRACON
03:07PM 41.3333 -73.8000 151° Southeast 276 318 8,700 -1,620 Descending New York TRACON
03:08PM 41.2667 -73.7333 143° Southeast 264 304 7,000 -1,740 Descending New York TRACON
03:09PM 41.2167 -73.7167 166° South 270 311 5,400 -1,320 Descending New York TRACON
03:10PM 41.1667 -73.8000 231° Southwest 270 311 4,600 -660 Descending New York TRACON
03:11PM 41.1167 -73.8667 225° Southwest 268 308 4,100 -300 Descending New York TRACON
03:12PM 41.0667 -73.8833 194° South 223 257 4,000  Descending New York TRACON
03:13PM 41.0000 -73.9000 191° South 222 255 4,100  Climbing New York TRACON
03:14PM 40.9500 -73.9167 194° South 220 253 4,100  Level New York TRACON
03:15PM 40.8833 -73.9333 191° South 218 251 4,100 -240 Level New York TRACON
03:16PM 40.8333 -73.9667 207° Southwest 218 251 3,700 -540 Descending New York TRACON
03:17PM 40.7833 -74.0000 207° Southwest 213 245 3,100 -300 Descending New York TRACON
03:18PM 40.7167 -74.0333 201° Southwest 224 258 3,100 -120 Level New York TRACON
03:19PM 40.6667 -74.0833 217° Southwest 202 232 2,900 -600 Descending New York TRACON
03:20PM 40.6500 -74.0333 114° Southeast 175 201 2,000 -420 Descending New York TRACON
03:21PM 40.6667 -73.9833 66° East 168 193 2,100 -180 Climbing New York TRACON
03:22PM 40.7000 -73.9333 49° Northeast 177 204 1,700 -420 Descending New York TRACON